Time;durP1;ratioP1;P1;durP2;ratioP2;P2;SDS_P1;SDS_P2;PMS_P1;PMS_P2;Temp;Humidity;BMP_temperature;BMP_pressure;BME280_temperature;BME280_humidity;BME280_pressure;Samples;Min_cycle;Max_cycle;Signal;HPM_P1;HPM_P2
2022/04/20 00:01:24;;;;;;;12.02;4.00;;;5.90;99.90;;;;;;4951242;28;20178;-78
2022/04/20 00:03:50;;;;;;;8.10;3.55;;;5.90;99.90;;;;;;4969186;28;20117;-78
2022/04/20 00:06:16;;;;;;;8.13;3.50;;;5.90;99.90;;;;;;4953593;28;20041;-78
2022/04/20 00:08:41;;;;;;;8.98;3.28;;;5.90;99.90;;;;;;4952759;28;20111;-78
2022/04/20 00:11:08;;;;;;;7.45;3.15;;;6.00;99.90;;;;;;4952576;28;20058;-79
2022/04/20 00:13:35;;;;;;;9.43;3.97;;;6.00;99.90;;;;;;4971264;28;20078;-78
2022/04/20 00:16:00;;;;;;;6.97;3.15;;;6.00;99.90;;;;;;4952532;28;20053;-79
2022/04/20 00:18:26;;;;;;;6.07;3.17;;;6.10;99.90;;;;;;4937426;28;20043;-78
2022/04/20 00:20:52;;;;;;;8.23;3.05;;;6.30;99.90;;;;;;4954435;28;20459;-78
2022/04/20 00:23:18;;;;;;;7.25;3.40;;;6.20;99.90;;;;;;4970069;28;20101;-78
2022/04/20 00:25:43;;;;;;;6.30;3.10;;;6.30;99.90;;;;;;4951055;28;20046;-78
2022/04/20 00:28:09;;;;;;;8.18;3.20;;;6.40;99.90;;;;;;4968458;28;20046;-79
2022/04/20 00:30:35;;;;;;;8.40;3.38;;;6.40;99.90;;;;;;4936267;28;20035;-79
2022/04/20 00:33:03;;;;;;;6.47;3.08;;;6.40;99.90;;;;;;4967844;28;20613;-78
2022/04/20 00:35:29;;;;;;;7.65;3.20;;;6.50;99.90;;;;;;4936037;28;20057;-78
2022/04/20 00:37:55;;;;;;;6.68;3.20;;;6.50;99.90;;;;;;4939372;28;20407;-79
2022/04/20 00:40:22;;;;;;;9.15;3.42;;;6.50;99.90;;;;;;4952472;28;20308;-79
2022/04/20 00:42:48;;;;;;;6.45;3.05;;;6.60;99.90;;;;;;4968539;28;20072;-79
2022/04/20 00:45:13;;;;;;;8.00;3.30;;;6.60;99.90;;;;;;4935179;28;20042;-79
2022/04/20 00:47:42;;;;;;;6.45;2.90;;;6.60;99.90;;;;;;4987904;28;20407;-79
2022/04/20 00:50:09;;;;;;;8.50;3.25;;;6.70;99.90;;;;;;4964735;28;20060;-80
2022/04/20 00:52:35;;;;;;;6.97;3.30;;;6.70;99.90;;;;;;4939691;28;20415;-79
2022/04/20 00:55:00;;;;;;;8.82;3.08;;;6.70;99.90;;;;;;4951430;28;20133;-79
2022/04/20 00:57:26;;;;;;;7.50;3.10;;;6.70;99.90;;;;;;4968014;28;20447;-78
2022/04/20 00:59:59;;;;;;;7.07;3.17;;;6.60;99.90;;;;;;4970345;28;20066;-79
2022/04/20 01:02:27;;;;;;;8.32;2.95;;;6.60;99.90;;;;;;4943588;28;20083;-78
2022/04/20 01:04:52;;;;;;;7.78;3.10;;;6.60;99.90;;;;;;4961191;28;20046;-78
2022/04/20 01:07:18;;;;;;;9.38;3.35;;;6.60;99.90;;;;;;4944744;28;20045;-77
2022/04/20 01:09:45;;;;;;;8.90;3.10;;;6.60;99.90;;;;;;4950121;28;20039;-78
2022/04/20 01:12:15;;;;;;;6.57;2.92;;;6.50;99.90;;;;;;4933217;28;20081;-77
2022/04/20 01:14:41;;;;;;;6.32;3.10;;;6.50;99.90;;;;;;4965949;28;20073;-77
2022/04/20 01:17:08;;;;;;;7.43;3.30;;;6.50;99.90;;;;;;4967451;28;20142;-77
2022/04/20 01:19:35;;;;;;;7.50;3.42;;;6.40;99.90;;;;;;4968286;28;20078;-77
2022/04/20 01:22:04;;;;;;;9.23;3.22;;;6.40;99.90;;;;;;4935351;28;20077;-78
2022/04/20 01:24:30;;;;;;;9.98;3.92;;;6.30;99.90;;;;;;4967078;28;20049;-78
2022/04/20 01:26:56;;;;;;;9.18;3.50;;;6.30;99.90;;;;;;4950998;28;20125;-78
2022/04/20 01:29:23;;;;;;;7.22;3.13;;;6.30;99.90;;;;;;4934461;28;20137;-78
2022/04/20 01:31:49;;;;;;;8.10;3.13;;;6.20;99.90;;;;;;4950623;28;20129;-78
2022/04/20 01:34:15;;;;;;;8.27;3.50;;;6.20;99.90;;;;;;4967535;28;20039;-78
2022/04/20 01:36:41;;;;;;;8.65;3.60;;;6.20;99.90;;;;;;4957145;28;20050;-77
2022/04/20 01:39:07;;;;;;;8.65;3.60;;;6.10;99.90;;;;;;4949773;28;20046;-78
2022/04/20 01:41:32;;;;;;;8.18;3.33;;;6.10;99.90;;;;;;4951364;28;20043;-78
2022/04/20 01:43:58;;;;;;;9.65;3.67;;;6.10;99.90;;;;;;4968469;28;20043;-78
2022/04/20 01:46:23;;;;;;;10.20;3.50;;;6.00;99.90;;;;;;4955554;28;20414;-78
2022/04/20 01:48:49;;;;;;;6.88;3.47;;;6.00;99.90;;;;;;4944207;28;20035;-78
2022/04/20 01:54:00;;;;;;;8.00;3.60;;;5.90;99.90;;;;;;4967167;28;20149;-77
2022/04/20 01:56:25;;;;;;;7.80;3.88;;;5.90;99.90;;;;;;4938161;28;20121;-78
2022/04/20 01:58:54;;;;;;;7.28;3.35;;;5.80;99.90;;;;;;4971887;28;20810;-78
2022/04/20 02:04:06;;;;;;;7.32;3.50;;;5.80;99.90;;;;;;4958573;28;20059;-78
2022/04/20 02:06:31;;;;;;;10.07;4.10;;;5.80;99.90;;;;;;4979327;28;20035;-78
2022/04/20 02:08:57;;;;;;;6.63;3.50;;;5.80;99.90;;;;;;4972989;28;20047;-78
2022/04/20 02:11:23;;;;;;;7.45;3.83;;;5.80;99.90;;;;;;4954742;28;20059;-77
2022/04/20 02:13:48;;;;;;;6.93;3.47;;;5.80;99.90;;;;;;4955467;28;20042;-78
2022/04/20 02:16:14;;;;;;;6.72;3.35;;;5.80;99.90;;;;;;4978227;28;20113;-78
2022/04/20 02:18:40;;;;;;;7.18;3.58;;;5.90;99.90;;;;;;4954154;28;20471;-79
2022/04/20 02:21:05;;;;;;;7.72;3.40;;;5.90;99.90;;;;;;4937621;28;20122;-79
2022/04/20 02:23:31;;;;;;;8.70;3.38;;;5.90;99.90;;;;;;4958701;28;20062;-78
2022/04/20 02:25:57;;;;;;;9.38;3.92;;;5.90;99.90;;;;;;4939341;28;20046;-78
2022/04/20 02:28:22;;;;;;;9.95;4.15;;;5.80;99.90;;;;;;4986911;28;20444;-78
2022/04/20 02:30:48;;;;;;;8.57;3.70;;;5.80;99.90;;;;;;4953616;28;20049;-78
2022/04/20 02:33:14;;;;;;;8.05;3.78;;;5.90;99.90;;;;;;4954479;28;20480;-78
2022/04/20 02:35:40;;;;;;;7.90;3.65;;;5.90;99.90;;;;;;4955110;28;20133;-78
2022/04/20 02:38:09;;;;;;;8.18;3.67;;;5.90;99.90;;;;;;4972916;28;20065;-78
2022/04/20 02:40:35;;;;;;;7.20;3.65;;;5.90;99.90;;;;;;4953891;28;20038;-78
2022/04/20 02:43:00;;;;;;;9.25;3.53;;;5.80;99.90;;;;;;4954384;28;20110;-77
2022/04/20 02:45:26;;;;;;;13.73;4.13;;;5.80;99.90;;;;;;4969269;28;20062;-78
2022/04/20 02:47:55;;;;;;;8.57;3.60;;;5.80;99.90;;;;;;4987078;28;20487;-78
2022/04/20 02:50:20;;;;;;;9.27;4.10;;;5.80;99.90;;;;;;4969744;28;20041;-78
2022/04/20 02:52:46;;;;;;;8.40;3.55;;;5.80;99.90;;;;;;4954129;28;20121;-78
2022/04/20 02:55:12;;;;;;;9.77;3.97;;;5.70;99.90;;;;;;4969870;28;20763;-78
2022/04/20 02:57:37;;;;;;;9.98;3.72;;;5.70;99.90;;;;;;4986006;28;20078;-78
2022/04/20 03:00:05;;;;;;;10.45;4.10;;;5.70;99.90;;;;;;4937284;28;20467;-78
2022/04/20 03:02:31;;;;;;;8.68;4.13;;;5.60;99.90;;;;;;4941103;28;20577;-78
2022/04/20 03:04:57;;;;;;;9.25;3.70;;;5.60;99.90;;;;;;4973775;28;20041;-78
2022/04/20 03:07:23;;;;;;;9.65;4.00;;;5.60;99.90;;;;;;4970280;28;20299;-79
2022/04/20 03:09:49;;;;;;;8.73;3.90;;;5.60;99.90;;;;;;4952516;28;20043;-78
2022/04/20 03:12:14;;;;;;;9.95;3.80;;;5.50;99.90;;;;;;4930755;29;20048;-77
2022/04/20 03:14:40;;;;;;;9.63;4.07;;;5.60;99.90;;;;;;4931056;29;20040;-79
2022/04/20 03:17:06;;;;;;;8.68;3.65;;;5.50;99.90;;;;;;4929560;29;20069;-78
2022/04/20 03:19:32;;;;;;;8.95;4.38;;;5.40;99.90;;;;;;4931256;29;20044;-78
2022/04/20 03:21:57;;;;;;;8.82;3.55;;;5.40;99.90;;;;;;4914656;29;20131;-78
2022/04/20 03:24:23;;;;;;;7.30;3.72;;;5.40;99.90;;;;;;4929958;29;20271;-78
2022/04/20 03:26:49;;;;;;;8.30;4.22;;;5.40;99.90;;;;;;4941895;29;20040;-78
2022/04/20 03:29:14;;;;;;;10.43;4.65;;;5.40;99.90;;;;;;4931861;29;20051;-78
2022/04/20 03:31:40;;;;;;;14.13;4.15;;;5.30;99.90;;;;;;4934283;29;20412;-78
2022/04/20 03:34:06;;;;;;;11.07;4.43;;;5.40;99.90;;;;;;4916047;29;20532;-78
2022/04/20 03:36:32;;;;;;;9.13;3.92;;;5.40;99.90;;;;;;4932750;29;20047;-78
2022/04/20 03:39:00;;;;;;;7.40;3.95;;;5.30;99.90;;;;;;4933675;29;20565;-78
2022/04/20 03:41:26;;;;;;;10.50;4.10;;;5.30;99.90;;;;;;4917034;29;20463;-78
2022/04/20 03:43:52;;;;;;;9.07;4.20;;;5.30;99.90;;;;;;4918630;29;20055;-78
2022/04/20 03:46:17;;;;;;;9.00;4.15;;;5.20;99.90;;;;;;4929682;29;20058;-77
2022/04/20 03:48:43;;;;;;;8.25;4.03;;;5.20;99.90;;;;;;4918550;29;20098;-77
2022/04/20 03:51:09;;;;;;;10.13;4.65;;;5.10;99.90;;;;;;4916833;29;20047;-77
2022/04/20 03:53:35;;;;;;;8.13;3.58;;;5.20;99.90;;;;;;4917447;29;20047;-78
2022/04/20 03:56:01;;;;;;;9.15;3.78;;;5.00;99.90;;;;;;4932002;29;20411;-77
2022/04/20 03:58:26;;;;;;;9.20;3.83;;;5.00;99.90;;;;;;4932096;29;20194;-78
2022/04/20 04:00:52;;;;;;;12.48;4.03;;;4.90;99.90;;;;;;4933244;29;20047;-78
2022/04/20 04:03:19;;;;;;;8.48;4.25;;;4.90;99.90;;;;;;4932008;29;20058;-78
2022/04/20 04:05:44;;;;;;;11.77;4.30;;;4.90;99.90;;;;;;4935668;29;20073;-78
2022/04/20 04:08:10;;;;;;;10.25;4.53;;;4.80;99.90;;;;;;4933097;29;20044;-78
2022/04/20 04:10:36;;;;;;;9.02;3.85;;;4.80;99.90;;;;;;4944245;28;20057;-78
2022/04/20 04:13:07;;;;;;;10.27;4.18;;;4.80;99.90;;;;;;4971357;28;20043;-78
2022/04/20 04:15:33;;;;;;;8.33;4.33;;;4.70;99.90;;;;;;4969899;28;20054;-78
2022/04/20 04:17:59;;;;;;;9.70;4.43;;;4.60;99.90;;;;;;4953074;28;20457;-78
2022/04/20 04:20:28;;;;;;;9.32;4.00;;;4.60;99.90;;;;;;4952007;28;20105;-78
2022/04/20 04:22:55;;;;;;;10.52;4.22;;;4.60;99.90;;;;;;4953248;28;20097;-77
2022/04/20 04:25:20;;;;;;;8.77;4.13;;;4.50;99.90;;;;;;4951232;28;20085;-77
2022/04/20 04:27:47;;;;;;;7.68;3.90;;;4.50;99.90;;;;;;4952597;28;20082;-77
2022/04/20 04:30:13;;;;;;;8.48;3.90;;;4.50;99.90;;;;;;4935574;28;20296;-78
2022/04/20 04:32:39;;;;;;;9.65;4.45;;;4.40;99.90;;;;;;4967371;28;20096;-78
2022/04/20 04:35:06;;;;;;;8.90;4.90;;;4.40;99.90;;;;;;4951377;28;20058;-78
2022/04/20 04:37:34;;;;;;;9.48;4.43;;;4.40;99.90;;;;;;4945758;28;20394;-78
2022/04/20 04:40:00;;;;;;;10.18;4.55;;;4.40;99.90;;;;;;4948860;28;20118;-78
2022/04/20 04:42:26;;;;;;;7.90;3.90;;;4.40;99.90;;;;;;4967920;28;20043;-78
2022/04/20 04:44:52;;;;;;;9.18;4.50;;;4.40;99.90;;;;;;4952972;28;20070;-78
2022/04/20 04:50:03;;;;;;;8.45;4.43;;;4.60;99.90;;;;;;4965637;28;20054;-78
2022/04/20 04:52:29;;;;;;;8.68;4.20;;;4.60;99.90;;;;;;4933609;28;20062;-79
2022/04/20 04:54:55;;;;;;;8.80;4.28;;;4.70;99.90;;;;;;4950366;28;20054;-78
2022/04/20 04:57:21;;;;;;;9.63;4.30;;;4.80;99.90;;;;;;4954265;28;20094;-79
2022/04/20 04:59:46;;;;;;;8.35;3.78;;;4.90;99.90;;;;;;4968888;28;20050;-79
2022/04/20 05:02:12;;;;;;;9.20;4.20;;;5.00;99.90;;;;;;4954508;28;20137;-79
2022/04/20 05:04:42;;;;;;;7.70;4.22;;;5.10;99.90;;;;;;4957121;28;20584;-78
2022/04/20 05:07:09;;;;;;;9.60;4.22;;;5.20;99.90;;;;;;4953015;28;20059;-78
2022/04/20 05:09:34;;;;;;;8.18;4.05;;;5.30;99.90;;;;;;4951938;28;20039;-78
2022/04/20 05:12:01;;;;;;;10.65;4.10;;;5.30;99.90;;;;;;4931800;29;20066;-78
2022/04/20 05:14:27;;;;;;;10.30;4.40;;;5.50;99.90;;;;;;4943625;28;20232;-78
2022/04/20 05:16:55;;;;;;;7.50;4.07;;;6.00;99.90;;;;;;4956429;28;20051;-79
2022/04/20 05:19:21;;;;;;;8.55;3.85;;;6.50;99.90;;;;;;4923856;29;20416;-78
2022/04/20 05:21:48;;;;;;;9.98;4.65;;;7.60;99.90;;;;;;4944270;29;20055;-79
2022/04/20 05:24:14;;;;;;;7.95;3.63;;;8.40;99.90;;;;;;4945614;28;20054;-78
2022/04/20 05:26:40;;;;;;;8.88;4.13;;;9.60;99.90;;;;;;4944364;28;20048;-78
2022/04/20 05:29:06;;;;;;;7.57;3.58;;;10.70;99.90;;;;;;4932266;28;20043;-78
2022/04/20 05:31:32;;;;;;;7.78;3.50;;;11.60;99.90;;;;;;4933008;29;20054;-79
2022/04/20 05:33:57;;;;;;;7.70;3.38;;;12.50;99.90;;;;;;4934286;28;20039;-78
2022/04/20 05:36:23;;;;;;;7.95;3.50;;;13.20;99.90;;;;;;4932566;28;20281;-78
2022/04/20 05:41:42;;;;;;;8.50;3.70;;;12.10;99.90;;;;;;4933584;29;20386;-77
2022/04/20 05:44:09;;;;;;;10.93;3.40;;;11.70;99.90;;;;;;4932947;28;20047;-78
2022/04/20 05:46:35;;;;;;;7.10;3.17;;;11.80;99.90;;;;;;4936385;28;20039;-78
2022/04/20 05:49:01;;;;;;;6.65;3.58;;;11.30;99.90;;;;;;4934371;28;20040;-78
2022/04/20 05:51:27;;;;;;;8.02;3.58;;;10.70;99.90;;;;;;4942426;29;20039;-79
2022/04/20 05:53:53;;;;;;;7.57;3.53;;;10.70;99.90;;;;;;4945399;28;20069;-79
2022/04/20 05:56:19;;;;;;;7.28;4.00;;;11.00;99.90;;;;;;4924510;29;20079;-78
2022/04/20 05:58:47;;;;;;;7.50;3.70;;;10.60;99.90;;;;;;4949720;28;20134;-79
2022/04/20 06:01:14;;;;;;;8.63;3.65;;;10.10;99.90;;;;;;4922416;29;20452;-78
2022/04/20 06:03:40;;;;;;;7.15;3.70;;;9.70;99.90;;;;;;4935533;28;20043;-79
2022/04/20 06:06:06;;;;;;;8.38;3.55;;;9.70;99.90;;;;;;4940038;28;20065;-79
2022/04/20 06:08:32;;;;;;;8.93;3.60;;;9.20;99.90;;;;;;4941087;28;20492;-78
2022/04/20 06:10:58;;;;;;;8.38;4.00;;;9.10;99.90;;;;;;4938072;28;20055;-79
2022/04/20 06:13:28;;;;;;;10.00;3.50;;;9.10;99.90;;;;;;4955374;28;20070;-79
2022/04/20 06:15:54;;;;;;;9.30;3.97;;;9.10;99.90;;;;;;4924763;29;20043;-78
2022/04/20 06:18:21;;;;;;;6.88;3.83;;;8.80;99.90;;;;;;4923374;29;20544;-78
2022/04/20 06:20:47;;;;;;;9.15;3.60;;;9.10;99.90;;;;;;4910487;29;20046;-78
2022/04/20 06:23:13;;;;;;;9.68;4.00;;;9.80;99.90;;;;;;4924948;29;20043;-79
2022/04/20 06:25:39;;;;;;;6.85;3.53;;;10.20;99.90;;;;;;4909634;29;20051;-78
2022/04/20 06:28:06;;;;;;;7.80;3.70;;;10.30;99.90;;;;;;4910783;29;20032;-77
2022/04/20 06:30:32;;;;;;;10.63;4.40;;;10.10;99.90;;;;;;4924678;29;20063;-79
2022/04/20 06:32:57;;;;;;;6.68;3.60;;;10.40;99.90;;;;;;4926873;29;20493;-78
2022/04/20 06:35:23;;;;;;;7.78;3.60;;;11.20;99.90;;;;;;4926349;29;20772;-78
2022/04/20 06:37:49;;;;;;;8.25;4.22;;;12.10;99.90;;;;;;4957035;28;20115;-78
2022/04/20 06:40:15;;;;;;;7.68;3.80;;;12.40;99.90;;;;;;4944898;28;20464;-79
2022/04/20 06:42:42;;;;;;;9.13;3.60;;;12.70;99.90;;;;;;4945245;28;20063;-80
2022/04/20 06:45:08;;;;;;;10.25;4.65;;;13.80;99.90;;;;;;4930120;29;20079;-79
2022/04/20 06:47:34;;;;;;;9.55;3.70;;;14.00;99.90;;;;;;4909269;29;20437;-79
2022/04/20 06:50:00;;;;;;;9.05;3.80;;;14.10;99.90;;;;;;4925783;29;20075;-78
2022/04/20 07:00:39;;;;;;;7.38;3.50;;;14.80;99.90;;;;;;4958480;28;20044;-79
2022/04/20 07:03:12;;;;;;;8.10;3.78;;;14.80;99.90;;;;;;4929694;29;20469;-79
2022/04/20 07:05:38;;;;;;;9.00;3.65;;;14.60;99.90;;;;;;4907626;29;20162;-80
2022/04/20 07:08:04;;;;;;;8.57;3.50;;;14.80;99.60;;;;;;4927698;29;20130;-80
2022/04/20 07:10:31;;;;;;;7.30;3.58;;;14.50;98.60;;;;;;4946707;28;20150;-80
2022/04/20 07:12:56;;;;;;;7.28;3.30;;;14.60;98.30;;;;;;4946837;28;20059;-80
2022/04/20 07:15:25;;;;;;;6.10;3.10;;;14.50;98.20;;;;;;4930635;28;20057;-79
2022/04/20 07:17:50;;;;;;;6.95;3.22;;;14.80;97.60;;;;;;4951028;28;20031;-80
2022/04/20 07:20:19;;;;;;;8.93;3.78;;;15.60;97.50;;;;;;4944745;28;20415;-80
2022/04/20 07:22:54;;;;;;;10.25;3.03;;;14.80;97.20;;;;;;4946702;28;20154;-80
2022/04/20 07:25:20;;;;;;;8.32;3.75;;;14.20;97.90;;;;;;4952975;28;20051;-78
2022/04/20 07:27:48;;;;;;;5.50;2.88;;;13.80;97.90;;;;;;4948314;28;20114;-79
2022/04/20 07:30:15;;;;;;;9.85;3.03;;;13.70;98.60;;;;;;4923198;28;20418;-80
2022/04/20 07:32:41;;;;;;;8.98;3.25;;;13.60;98.60;;;;;;4945476;28;20143;-80
2022/04/20 07:35:07;;;;;;;9.55;3.42;;;13.50;97.80;;;;;;4958050;28;20131;-80
2022/04/20 07:37:32;;;;;;;7.45;3.08;;;13.30;97.60;;;;;;4944671;28;20055;-79
2022/04/20 07:39:58;;;;;;;7.22;3.42;;;13.40;98.30;;;;;;4942822;28;20047;-79
2022/04/20 07:42:24;;;;;;;13.18;3.08;;;13.50;98.30;;;;;;4940269;28;20051;-79
2022/04/20 07:44:50;;;;;;;8.18;3.20;;;13.70;98.80;;;;;;4944815;28;20036;-78
2022/04/20 07:47:16;;;;;;;7.00;3.10;;;13.90;99.30;;;;;;4944595;28;20042;-78
2022/04/20 07:52:26;;;;;;;7.38;2.78;;;14.20;96.60;;;;;;4955641;28;20113;-78
2022/04/20 07:54:52;;;;;;;6.28;2.67;;;14.20;97.30;;;;;;4943312;28;20587;-76
2022/04/20 07:57:17;;;;;;;7.70;2.67;;;14.20;96.40;;;;;;4945888;28;20122;-75
2022/04/20 07:59:43;;;;;;;5.93;2.42;;;14.10;96.00;;;;;;4945389;29;20138;-75
2022/04/20 08:02:10;;;;;;;5.32;2.33;;;14.20;95.90;;;;;;4942753;28;20047;-73
2022/04/20 08:04:35;;;;;;;6.35;2.75;;;14.40;96.30;;;;;;4928857;28;20039;-74
2022/04/20 08:07:01;;;;;;;6.40;2.10;;;14.60;93.60;;;;;;4945228;29;20050;-74
2022/04/20 08:09:27;;;;;;;4.45;2.05;;;14.80;94.30;;;;;;4946041;28;20142;-73
2022/04/20 08:11:52;;;;;;;4.07;1.70;;;14.80;93.30;;;;;;4946386;28;20122;-74
2022/04/20 08:14:19;;;;;;;5.25;2.08;;;14.80;92.90;;;;;;4944103;29;20531;-74
2022/04/20 08:16:47;;;;;;;5.28;2.00;;;15.10;94.10;;;;;;4928378;29;20153;-75
2022/04/20 08:19:12;;;;;;;8.15;2.17;;;15.20;91.30;;;;;;4945133;28;20061;-74
2022/04/20 08:21:38;;;;;;;6.45;2.20;;;15.30;92.00;;;;;;4946223;28;20499;-74
2022/04/20 08:24:04;;;;;;;5.32;2.33;;;15.40;91.50;;;;;;4923591;28;20481;-74
2022/04/20 08:26:30;;;;;;;7.13;1.83;;;15.40;90.00;;;;;;4945114;28;20051;-75
2022/04/20 08:28:56;;;;;;;6.43;1.75;;;15.50;90.90;;;;;;4941037;28;20051;-76
2022/04/20 08:31:22;;;;;;;5.70;1.80;;;15.50;88.90;;;;;;4928434;29;20051;-77
2022/04/20 08:33:48;;;;;;;6.32;1.95;;;15.60;88.50;;;;;;4927876;29;20102;-76
2022/04/20 08:36:15;;;;;;;6.80;1.90;;;15.60;84.40;;;;;;4936190;28;20043;-75
2022/04/20 08:38:44;;;;;;;5.95;1.80;;;15.70;87.50;;;;;;4927537;28;20090;-76
2022/04/20 08:41:14;;;;;;;4.70;1.67;;;15.90;87.40;;;;;;4941147;28;20055;-75
2022/04/20 08:43:42;;;;;;;5.05;1.90;;;16.30;87.40;;;;;;4929147;28;20070;-74
2022/04/20 08:46:11;;;;;;;4.30;2.05;;;16.30;83.30;;;;;;4935668;28;20066;-75
2022/04/20 08:48:38;;;;;;;4.35;1.88;;;16.10;78.60;;;;;;4927122;29;20043;-74
2022/04/20 08:51:05;;;;;;;4.30;1.65;;;16.00;78.00;;;;;;4944803;28;20403;-74
2022/04/20 08:53:31;;;;;;;4.55;1.38;;;15.90;78.80;;;;;;4945811;28;20142;-74
2022/04/20 08:58:48;;;;;;;4.30;1.50;;;16.00;75.60;;;;;;4944149;29;20051;-74
2022/04/20 09:01:15;;;;;;;4.00;1.60;;;15.90;76.20;;;;;;4948153;28;20118;-72
2022/04/20 09:03:42;;;;;;;3.72;1.35;;;16.00;77.30;;;;;;4945887;28;20042;-74
2022/04/20 09:06:09;;;;;;;4.57;1.23;;;16.10;73.00;;;;;;4943171;28;20071;-75
2022/04/20 09:08:37;;;;;;;5.20;1.63;;;16.20;69.80;;;;;;4943881;28;20119;-75
2022/04/20 09:11:04;;;;;;;3.72;1.48;;;16.20;73.90;;;;;;4978217;28;20047;-79
2022/04/20 09:13:33;;;;;;;4.63;1.55;;;16.20;71.10;;;;;;4941487;28;20055;-74
2022/04/20 09:16:10;;;;;;;4.03;1.45;;;16.30;72.10;;;;;;4974980;28;20050;-75
2022/04/20 09:18:37;;;;;;;4.05;1.40;;;16.50;71.70;;;;;;4926216;29;20043;-75
2022/04/20 09:21:08;;;;;;;6.20;1.30;;;16.50;72.00;;;;;;4942245;28;20130;-74
2022/04/20 09:23:34;;;;;;;4.28;1.30;;;16.60;71.30;;;;;;4943401;28;20035;-75
2022/04/20 09:26:10;;;;;;;4.18;1.25;;;16.60;70.00;;;;;;4948450;28;20129;-75
2022/04/20 09:28:39;;;;;;;4.30;1.30;;;16.60;68.70;;;;;;4947837;28;21126;-77
2022/04/20 09:31:07;;;;;;;4.32;1.55;;;16.60;69.00;;;;;;4947271;28;20043;-76
2022/04/20 09:33:49;;;;;;;5.13;1.77;;;16.60;70.00;;;;;;4961015;28;20508;-76
2022/04/20 09:36:15;;;;;;;3.17;1.50;;;16.70;69.50;;;;;;4976330;28;20110;-78
2022/04/20 09:39:01;;;;;;;3.00;1.20;;;16.80;67.80;;;;;;4946204;28;20127;-81
2022/04/20 09:41:26;;;;;;;3.20;1.40;;;16.80;65.40;;;;;;4973801;28;20039;-77
2022/04/20 09:44:16;;;;;;;5.00;1.63;;;16.70;66.70;;;;;;4943528;29;20114;-78
2022/04/20 09:49:52;;;;;;;5.57;1.58;;;17.00;67.40;;;;;;4958528;28;20575;-77
2022/04/20 09:52:18;;;;;;;6.72;1.63;;;17.00;67.80;;;;;;4927509;29;20124;-76
2022/04/20 09:54:53;;;;;;;3.40;1.30;;;17.10;66.80;;;;;;4943873;29;20050;-78
2022/04/20 09:57:20;;;;;;;3.38;1.48;;;17.10;67.30;;;;;;4940120;29;20043;-76
2022/04/20 10:00:06;;;;;;;3.40;1.23;;;17.20;67.50;;;;;;4958647;28;20058;-75
2022/04/20 10:02:45;;;;;;;2.78;1.20;;;17.30;64.40;;;;;;4958866;28;20513;-75
2022/04/20 10:05:11;;;;;;;5.45;1.50;;;17.40;66.10;;;;;;4943074;29;20512;-75
2022/04/20 10:07:37;;;;;;;4.50;1.52;;;17.30;64.50;;;;;;4943915;29;20094;-75
2022/04/20 10:10:04;;;;;;;3.80;1.45;;;17.30;64.40;;;;;;4943801;28;20061;-75
2022/04/20 10:12:33;;;;;;;3.05;1.20;;;17.30;64.70;;;;;;4944556;28;20057;-73
2022/04/20 10:17:53;;;;;;;5.47;1.30;;;17.30;65.90;;;;;;4967843;28;20054;-77
2022/04/20 10:20:20;;;;;;;4.18;1.58;;;17.30;61.80;;;;;;4940464;28;20059;-76
2022/04/20 10:22:47;;;;;;;6.10;1.30;;;17.20;60.90;;;;;;4979297;28;20049;-75
2022/04/20 10:25:13;;;;;;;4.75;1.42;;;17.00;62.10;;;;;;4982223;28;20259;-75
2022/04/20 10:27:48;;;;;;;5.05;1.50;;;16.80;59.60;;;;;;4962754;28;20126;-76
2022/04/20 10:30:23;;;;;;;3.92;1.40;;;16.80;62.40;;;;;;4976124;28;20093;-75
2022/04/20 10:33:05;;;;;;;4.03;1.13;;;16.80;62.40;;;;;;4958616;28;20520;-76
2022/04/20 10:35:32;;;;;;;3.10;1.20;;;16.90;62.70;;;;;;4977226;28;20066;-78
2022/04/20 10:38:12;;;;;;;2.50;1.27;;;17.00;60.30;;;;;;4966876;28;20450;-74
2022/04/20 10:41:06;;;;;;;3.72;1.38;;;17.00;61.80;;;;;;4951142;28;20050;-75
2022/04/20 10:43:34;;;;;;;3.97;1.70;;;17.10;62.00;;;;;;4929119;28;20047;-75
2022/04/20 10:46:20;;;;;;;3.15;1.40;;;17.10;60.60;;;;;;4948825;28;20031;-76
2022/04/20 10:49:15;;;;;;;3.72;1.42;;;17.10;61.40;;;;;;4947810;28;20792;-76
2022/04/20 10:51:48;;;;;;;3.28;1.30;;;17.20;64.30;;;;;;4947394;28;20046;-75
2022/04/20 10:54:18;;;;;;;4.35;1.42;;;17.40;61.50;;;;;;4932610;28;20522;-75
2022/04/20 10:57:09;;;;;;;5.38;1.30;;;17.40;61.20;;;;;;4947282;28;20047;-75
2022/04/20 10:59:34;;;;;;;5.78;1.48;;;17.70;62.70;;;;;;4949826;28;20049;-75
2022/04/20 11:02:03;;;;;;;3.97;1.45;;;17.50;60.30;;;;;;4949193;28;20051;-75
2022/04/20 11:04:37;;;;;;;5.00;1.45;;;17.40;59.70;;;;;;4933009;28;20038;-75
2022/04/20 11:07:03;;;;;;;4.70;1.25;;;17.10;58.80;;;;;;4962544;28;21253;-78
2022/04/20 11:09:48;;;;;;;4.15;1.30;;;17.10;61.60;;;;;;4949589;28;20042;-78
2022/04/20 11:21:03;;;;;;;4.10;1.30;;;17.30;60.30;;;;;;4968640;28;20427;-76
2022/04/20 11:24:03;;;;;;;4.88;1.25;;;17.30;59.60;;;;;;4969848;28;20042;-75
2022/04/20 11:26:40;;;;;;;2.92;1.30;;;17.30;59.20;;;;;;4966771;28;20056;-75
2022/04/20 11:29:12;;;;;;;3.60;1.17;;;17.30;58.70;;;;;;4968482;28;20049;-75
2022/04/20 11:31:42;;;;;;;4.22;1.20;;;17.20;59.00;;;;;;4936899;28;20102;-74
2022/04/20 11:34:08;;;;;;;4.88;1.15;;;17.20;59.00;;;;;;4968920;28;20051;-74
2022/04/20 11:36:37;;;;;;;2.75;1.23;;;17.30;59.70;;;;;;4950838;28;20097;-73
2022/04/20 11:39:02;;;;;;;2.70;1.10;;;17.30;60.00;;;;;;4951110;28;20046;-76
2022/04/20 11:41:28;;;;;;;2.38;1.00;;;17.30;58.20;;;;;;4966129;28;20045;-77
2022/04/20 11:43:54;;;;;;;2.38;1.00;;;17.40;60.20;;;;;;4947936;28;20046;-78
2022/04/20 11:46:20;;;;;;;3.70;1.20;;;17.40;60.60;;;;;;4964300;28;20047;-76
2022/04/20 11:48:50;;;;;;;2.20;1.00;;;17.30;60.10;;;;;;4964041;28;20042;-74
2022/04/20 11:51:21;;;;;;;2.30;0.93;;;17.30;59.60;;;;;;4966026;28;20039;-76
2022/04/20 11:53:48;;;;;;;4.15;1.20;;;17.30;60.40;;;;;;4948234;28;20049;-75
2022/04/20 11:56:15;;;;;;;2.45;1.10;;;17.20;59.30;;;;;;4965996;28;20113;-75
2022/04/20 11:58:46;;;;;;;3.47;0.98;;;17.10;60.10;;;;;;4950436;28;20393;-76
2022/04/20 12:01:12;;;;;;;4.30;1.17;;;17.20;60.90;;;;;;4944390;28;20097;-76
2022/04/20 12:03:41;;;;;;;3.03;1.00;;;17.40;61.10;;;;;;4945677;28;20043;-74
2022/04/20 12:06:09;;;;;;;4.13;1.00;;;17.50;61.10;;;;;;4948270;28;20054;-75
2022/04/20 12:08:42;;;;;;;1.90;0.80;;;17.60;61.80;;;;;;4931577;28;20054;-75
2022/04/20 12:11:10;;;;;;;2.85;0.90;;;17.60;60.40;;;;;;4940850;28;20051;-74
2022/04/20 12:13:36;;;;;;;2.55;0.80;;;17.50;60.50;;;;;;4941210;28;20522;-74
2022/04/20 12:16:04;;;;;;;4.07;1.05;;;17.70;62.20;;;;;;4952204;28;20514;-74
2022/04/20 12:18:37;;;;;;;2.45;1.00;;;17.80;61.90;;;;;;4954186;28;20051;-74
2022/04/20 12:21:26;;;;;;;3.38;1.13;;;18.00;61.30;;;;;;4931452;28;20065;-73
2022/04/20 12:23:52;;;;;;;2.58;1.20;;;17.90;60.20;;;;;;4952400;28;20043;-75
2022/04/20 12:26:29;;;;;;;2.95;0.93;;;17.90;60.40;;;;;;4933745;28;20045;-75
2022/04/20 12:29:02;;;;;;;2.53;1.00;;;17.80;59.70;;;;;;4973797;28;20042;-75
2022/04/20 12:31:30;;;;;;;1.52;0.70;;;17.70;61.00;;;;;;4939610;28;20061;-75
2022/04/20 12:34:07;;;;;;;2.53;0.90;;;17.80;59.50;;;;;;4955244;28;20538;-76
2022/04/20 12:36:53;;;;;;;2.92;0.80;;;17.60;59.50;;;;;;4955354;28;20050;-75
2022/04/20 12:39:27;;;;;;;2.85;0.77;;;17.60;60.90;;;;;;4937198;28;20043;-76
2022/04/20 12:41:58;;;;;;;2.47;0.90;;;17.70;62.00;;;;;;4939321;28;20050;-75
2022/04/20 12:44:36;;;;;;;2.22;0.80;;;17.70;60.00;;;;;;4967465;28;20081;-75
2022/04/20 12:47:10;;;;;;;2.00;0.90;;;17.60;59.80;;;;;;4970175;28;20050;-78
2022/04/20 12:49:39;;;;;;;2.85;0.90;;;17.50;60.10;;;;;;4940956;28;20051;-77
2022/04/20 12:52:14;;;;;;;2.92;0.90;;;17.40;60.20;;;;;;4972607;28;20070;-78
2022/04/20 12:54:52;;;;;;;2.45;0.95;;;17.60;62.10;;;;;;4948806;28;20097;-76
2022/04/20 13:03:01;;;;;;;4.03;0.90;;;17.60;60.80;;;;;;4948177;28;20069;-77
2022/04/20 13:05:27;;;;;;;4.28;0.88;;;17.60;61.00;;;;;;4944451;28;20065;-76
2022/04/20 13:07:52;;;;;;;2.30;1.00;;;17.70;61.40;;;;;;4947913;28;20064;-74
2022/04/20 13:10:18;;;;;;;5.68;1.20;;;17.70;61.80;;;;;;4930649;28;20043;-75
2022/04/20 13:12:49;;;;;;;3.17;1.10;;;17.70;61.50;;;;;;4932143;28;20507;-74
2022/04/20 13:15:14;;;;;;;3.47;1.00;;;17.70;61.40;;;;;;4927660;28;20050;-77
2022/04/20 13:17:40;;;;;;;3.95;0.98;;;17.80;61.90;;;;;;4944099;28;20382;-77
2022/04/20 13:20:07;;;;;;;1.85;0.90;;;17.80;62.40;;;;;;4962671;28;20092;-75
2022/04/20 13:22:33;;;;;;;3.63;0.98;;;17.80;63.00;;;;;;4947803;28;20058;-76
2022/04/20 13:27:55;;;;;;;4.32;1.73;;;17.80;63.20;;;;;;4947835;28;20054;-75
2022/04/20 13:30:26;;;;;;;8.00;2.85;;;17.70;64.20;;;;;;4950114;28;20428;-75
2022/04/20 13:32:52;;;;;;;8.48;2.75;;;17.60;70.70;;;;;;4966782;28;20178;-74
2022/04/20 13:35:19;;;;;;;5.60;2.70;;;17.40;72.30;;;;;;4965015;28;20070;-75
2022/04/20 13:37:44;;;;;;;6.40;2.90;;;17.40;72.80;;;;;;4964129;28;21374;-77
2022/04/20 13:40:10;;;;;;;4.78;2.40;;;17.20;73.00;;;;;;4946132;28;20092;-76
2022/04/20 13:42:37;;;;;;;6.55;2.78;;;17.10;74.50;;;;;;4945975;28;20038;-76